Terminal Aerodrome Forecast
Issued by NWS

Home | Current Version | Previous Version | Text Only | Print | Product List | Glossary On
Versions: 1 2 3 4 5 6 7 8 9 10 11 12 13 14 15 16 17 18 19 20 21 22 23 24
000
FTUS43 KGLD 281720
TAFMCK
TAF
KMCK 281720Z 2818/0118 17010KT P6SM VCSH BKN020
      TEMPO 2818/2821 SCT020 BKN040
     FM282100 17009KT P6SM BKN035
     FM010800 VRB04KT P6SM VCSH SCT020 BKN035
     FM011200 VRB03KT P6SM VCSH BKN025
     FM011700 35006KT P6SM BKN025=

USA.gov is the U.S. government's official web portal to all federal, state and local government web resources and services.